Terminal Aerodrome Forecast
Issued by NWS

Home | Current Version | Previous Version | Text Only | Print | Product List | Glossary On
Versions: 1 2 3 4 5 6 7 8 9 10 11 12 13 14 15 16 17
000
FTUS42 KMLB 010111 AAA
TAFISM
TAF AMD
KISM 010111Z 0101/0124 12006KT P6SM VCTS FEW015 SCT035CB BKN070
     FM010300 12005KT P6SM SCT050 BKN100 BKN250
     FM010500 VRB03KT P6SM SCT250
     FM011500 03006KT P6SM SCT035 SCT250=

USA.gov is the U.S. government's official web portal to all federal, state and local government web resources and services.